YCM weather

Niagara District Airport
St Catharines, Ontario, Canada

Public forecast

Using degrees Celsius for public forecast. Weather courtesy of forecast.io.

Current aviation weather report (METAR) for Niagara District Airport

Retrieved 2019/10/22 00:00 UTC (36 minutes ago):

CYSN 220000Z 09009KT 15SM FEW120 BKN240 14/10 A2984 RMK AC1CI6 SLP106 DENSITY ALT 500FT

Aviation forecast (TAF) for Niagara District Airport

Retrieved 2019/10/21 20:00 UTC (5 hours ago):

TAF CYSN 211938Z 2120/2201 09010G20KT P6SM BKN250 FM220000 12012KT P6SM SCT110 BKN220 RMK NXT FCST WILL BE ISSUED AT 221245Z